createdAt,value
2018-07-21T00:01:17.914Z,97821.56
2018-07-21T00:03:46.613Z,97824.28
2018-07-21T00:06:15.555Z,97825.77
2018-07-21T00:08:44.253Z,97826.78
2018-07-21T00:11:13.076Z,97818.56
2018-07-21T00:13:43.054Z,97812.17
2018-07-21T00:16:11.724Z,97816.69
2018-07-21T00:18:40.387Z,97821.97
2018-07-21T00:21:09.323Z,97811.12
2018-07-21T00:23:38.018Z,97808.17
2018-07-21T00:26:06.786Z,97807.80
2018-07-21T00:28:35.395Z,97806.02
2018-07-21T00:31:04.055Z,97804.70
2018-07-21T00:33:32.792Z,97805.43
2018-07-21T00:36:01.406Z,97807.39
2018-07-21T00:38:44.358Z,97814.06
2018-07-21T00:41:13.039Z,97814.91
2018-07-21T00:43:41.654Z,97813.87
2018-07-21T00:46:10.220Z,97814.20
2018-07-21T00:48:39.001Z,97815.34
2018-07-21T00:51:07.739Z,97818.85
2018-07-21T00:53:36.418Z,97818.67
2018-07-21T00:56:05.118Z,97818.61
2018-07-21T00:58:33.953Z,97814.41
2018-07-21T01:01:02.591Z,97815.02
2018-07-21T01:03:31.259Z,97815.89
2018-07-21T01:05:59.865Z,97810.48
2018-07-21T01:08:28.552Z,97806.04
2018-07-21T01:10:57.334Z,97806.85
2018-07-21T01:13:25.907Z,97810.27
2018-07-21T01:15:54.516Z,97809.21
2018-07-21T01:18:23.192Z,97806.81
2018-07-21T01:20:51.912Z,97801.66
2018-07-21T01:23:20.627Z,97794.89
2018-07-21T01:25:49.352Z,97801.11
2018-07-21T01:28:18.015Z,97805.09
2018-07-21T01:30:46.611Z,97803.91
2018-07-21T01:33:15.222Z,97800.58
2018-07-21T01:35:43.866Z,97799.73
2018-07-21T01:38:12.498Z,97795.61
2018-07-21T01:40:41.288Z,97792.77
2018-07-21T01:43:09.946Z,97791.69
2018-07-21T01:45:38.665Z,97792.94
2018-07-21T01:48:07.574Z,97789.23
2018-07-21T01:50:36.285Z,97796.98
2018-07-21T01:53:04.878Z,97792.38
2018-07-21T01:55:33.930Z,97798.34
2018-07-21T01:58:02.700Z,97791.03
2018-07-21T02:00:31.656Z,97786.27
2018-07-21T02:03:00.306Z,97780.91
2018-07-21T02:05:28.993Z,97778.07
2018-07-21T02:07:57.698Z,97780.87
2018-07-21T02:10:26.345Z,97774.45
2018-07-21T02:12:54.982Z,97775.59
2018-07-21T02:15:23.619Z,97778.52
2018-07-21T02:17:53.110Z,97771.60
2018-07-21T02:20:22.824Z,97772.08
2018-07-21T02:22:51.546Z,97766.79
2018-07-21T02:25:20.189Z,97772.31
2018-07-21T02:27:48.984Z,97767.87
2018-07-21T02:30:17.561Z,97769.27
2018-07-21T02:32:46.234Z,97763.44
2018-07-21T02:35:14.957Z,97773.60
2018-07-21T02:37:43.667Z,97766.71
2018-07-21T02:40:12.299Z,97761.85
2018-07-21T02:42:41.047Z,97759.05
2018-07-21T02:45:09.751Z,97763.74
2018-07-21T02:47:38.434Z,97758.93
2018-07-21T02:50:07.201Z,97758.20
2018-07-21T02:52:35.872Z,97762.09
2018-07-21T02:55:04.581Z,97768.59
2018-07-21T02:57:33.151Z,97768.36
2018-07-21T03:00:01.866Z,97759.52
2018-07-21T03:02:30.543Z,97761.84
2018-07-21T03:04:59.314Z,97767.68
2018-07-21T03:07:28.019Z,97759.17
2018-07-21T03:09:56.626Z,97760.39
2018-07-21T03:12:26.427Z,97766.05
2018-07-21T03:14:55.074Z,97766.53
2018-07-21T03:17:23.832Z,97770.73
2018-07-21T03:19:52.517Z,97770.72
2018-07-21T03:22:21.120Z,97774.25
2018-07-21T03:24:49.802Z,97774.57
2018-07-21T03:27:18.661Z,97778.39
2018-07-21T03:29:47.396Z,97775.59
2018-07-21T03:32:16.151Z,97770.84
2018-07-21T03:34:44.818Z,97772.62
2018-07-21T03:37:13.632Z,97772.14
2018-07-21T03:39:42.255Z,97774.81
2018-07-21T03:42:11.017Z,97776.46
2018-07-21T03:44:39.724Z,97785.92
2018-07-21T03:47:08.707Z,97789.27
2018-07-21T03:49:37.395Z,97793.48
2018-07-21T03:52:06.177Z,97793.66
2018-07-21T03:54:34.936Z,97796.88
2018-07-21T03:57:03.574Z,97787.27
2018-07-21T03:59:32.425Z,97795.66
2018-07-21T04:02:00.948Z,97797.38
2018-07-21T04:04:29.552Z,97802.86
2018-07-21T04:06:58.145Z,97797.58
2018-07-21T04:09:26.777Z,97802.25
2018-07-21T04:11:55.552Z,97803.58
2018-07-21T04:14:24.324Z,97804.93
2018-07-21T04:16:53.036Z,97811.20
2018-07-21T04:19:21.742Z,97808.40
2018-07-21T04:21:50.465Z,97808.64
2018-07-21T04:24:19.155Z,97807.88
2018-07-21T04:26:47.574Z,97811.89
2018-07-21T04:29:16.280Z,97815.55
2018-07-21T04:31:44.897Z,97817.08
2018-07-21T04:34:13.449Z,97819.61
2018-07-21T04:36:42.224Z,97822.30
2018-07-21T04:39:11.960Z,97825.47
2018-07-21T04:41:41.248Z,97837.20
2018-07-21T04:44:09.978Z,97839.75
2018-07-21T04:46:38.624Z,97840.60
2018-07-21T04:49:07.362Z,97838.06
2018-07-21T04:51:36.127Z,97842.29
2018-07-21T04:54:04.820Z,97843.48
2018-07-21T04:56:33.421Z,97845.64
2018-07-21T04:59:02.191Z,97847.80
2018-07-21T05:01:30.839Z,97853.02
2018-07-21T05:03:59.491Z,97853.54
2018-07-21T05:06:28.108Z,97855.38
2018-07-21T05:09:01.229Z,97854.14
2018-07-21T05:11:29.801Z,97858.64
2018-07-21T05:13:58.474Z,97856.28
2018-07-21T05:16:27.019Z,97861.81
2018-07-21T05:18:55.567Z,97866.64
2018-07-21T05:21:25.710Z,97853.38
2018-07-21T05:23:54.414Z,97859.48
2018-07-21T05:26:23.294Z,97863.12
2018-07-21T05:28:51.965Z,97853.58
2018-07-21T05:31:20.579Z,97855.95
2018-07-21T05:33:49.282Z,97857.83
2018-07-21T05:36:18.858Z,97856.97
2018-07-21T05:38:47.686Z,97857.34
2018-07-21T05:41:16.311Z,97856.85
2018-07-21T05:43:45.109Z,97857.47
2018-07-21T05:46:13.784Z,97858.33
2018-07-21T05:48:42.538Z,97865.38
2018-07-21T05:51:11.139Z,97861.61
2018-07-21T05:53:39.761Z,97874.03
2018-07-21T05:56:08.470Z,97874.38
2018-07-21T05:58:37.202Z,97874.97
2018-07-21T06:01:05.814Z,97878.83
2018-07-21T06:03:34.474Z,97882.84
2018-07-21T06:06:03.341Z,97888.84
2018-07-21T06:08:31.962Z,97890.67
2018-07-21T06:11:00.694Z,97887.02
2018-07-21T06:13:29.385Z,97892.39
2018-07-21T06:15:58.364Z,97900.02
2018-07-21T06:18:27.062Z,97902.06
2018-07-21T06:20:55.733Z,97910.73
2018-07-21T06:23:24.469Z,97911.14
2018-07-21T06:25:53.110Z,97916.20
2018-07-21T06:28:27.612Z,97917.64
2018-07-21T06:30:56.281Z,97923.78
2018-07-21T06:33:25.345Z,97920.34
2018-07-21T06:35:54.613Z,97922.59
2018-07-21T06:38:23.909Z,97926.97
2018-07-21T06:40:52.551Z,97924.72
2018-07-21T06:43:21.282Z,97925.25
2018-07-21T06:45:50.132Z,97923.57
2018-07-21T06:48:19.008Z,97925.76
2018-07-21T06:50:47.804Z,97923.57
2018-07-21T06:53:16.752Z,97922.30
2018-07-21T06:55:45.539Z,97921.48
2018-07-21T06:58:14.172Z,97921.86
2018-07-21T07:00:42.870Z,97923.92
2018-07-21T07:03:11.445Z,97923.84
2018-07-21T07:05:40.177Z,97921.69
2018-07-21T07:08:09.052Z,97916.68
2018-07-21T07:10:37.919Z,97921.56
2018-07-21T07:13:06.811Z,97925.76
2018-07-21T07:15:35.529Z,97919.70
2018-07-21T07:18:04.455Z,97926.08
2018-07-21T07:20:33.264Z,97929.77
2018-07-21T07:23:01.942Z,97923.34
2018-07-21T07:25:30.788Z,97927.87
2018-07-21T07:27:59.690Z,97932.39
2018-07-21T07:30:28.346Z,97933.03
2018-07-21T07:32:57.097Z,97928.48
2018-07-21T07:35:25.675Z,97929.27
2018-07-21T07:37:54.305Z,97931.11
2018-07-21T07:40:23.064Z,97928.87
2018-07-21T07:42:51.907Z,97929.53
2018-07-21T07:45:20.872Z,97934.48
2018-07-21T07:47:49.602Z,97926.34
2018-07-21T07:50:18.572Z,97920.38
2018-07-21T07:52:47.249Z,97929.22
2018-07-21T07:55:16.046Z,97926.09
2018-07-21T07:57:44.825Z,97927.59
2018-07-21T08:00:13.344Z,97927.44
2018-07-21T08:02:41.970Z,97925.44
2018-07-21T08:05:10.662Z,97933.18
2018-07-21T08:07:42.195Z,97937.21
2018-07-21T08:10:10.910Z,97936.17
2018-07-21T08:12:39.649Z,97934.66
2018-07-21T08:15:08.400Z,97939.91
2018-07-21T08:17:37.039Z,97939.50
2018-07-21T08:20:05.831Z,97938.06
2018-07-21T08:22:34.608Z,97945.11
2018-07-21T08:25:03.448Z,97944.09
2018-07-21T08:27:32.145Z,97945.74
2018-07-21T08:30:01.023Z,97955.09
2018-07-21T08:32:29.642Z,97954.73
2018-07-21T08:34:58.477Z,97955.23
2018-07-21T08:37:28.142Z,97954.14
2018-07-21T08:39:56.904Z,97953.44
2018-07-21T08:42:25.844Z,97954.88
2018-07-21T08:44:54.638Z,97953.67
2018-07-21T08:47:23.367Z,97959.05
2018-07-21T08:49:52.236Z,97960.05
2018-07-21T08:52:21.082Z,97960.97
2018-07-21T08:54:49.812Z,97958.66
2018-07-21T08:57:18.670Z,97959.61
2018-07-21T08:59:47.520Z,97961.60
2018-07-21T09:02:16.200Z,97965.03
2018-07-21T09:04:44.945Z,97960.99
2018-07-21T09:07:13.612Z,97969.53
2018-07-21T09:09:43.418Z,97971.45
2018-07-21T09:12:12.333Z,97966.93
2018-07-21T09:14:41.374Z,97971.97
2018-07-21T09:17:10.220Z,97967.52
2018-07-21T09:19:38.912Z,97973.97
2018-07-21T09:22:07.507Z,97975.69
2018-07-21T09:24:36.205Z,97978.62
2018-07-21T09:27:04.868Z,97978.27
2018-07-21T09:29:33.571Z,97976.27
2018-07-21T09:32:02.599Z,97979.04
2018-07-21T09:34:31.420Z,97978.05
2018-07-21T09:37:00.315Z,97976.41
2018-07-21T09:39:29.029Z,97977.08
2018-07-21T09:41:57.896Z,97981.98
2018-07-21T09:44:26.740Z,97976.59
2018-07-21T09:46:55.517Z,97987.69
2018-07-21T09:49:24.271Z,97985.84
2018-07-21T09:51:53.023Z,97988.48
2018-07-21T09:54:21.736Z,97992.17
2018-07-21T09:56:50.469Z,97998.67
2018-07-21T09:59:19.333Z,98001.81
2018-07-21T10:01:48.123Z,97999.79
2018-07-21T10:04:16.847Z,98008.55
2018-07-21T10:06:45.696Z,98008.83
2018-07-21T10:09:14.576Z,98008.97
2018-07-21T10:11:43.196Z,98012.56
2018-07-21T10:14:11.983Z,98015.45
2018-07-21T10:16:40.871Z,98027.28
2018-07-21T10:19:11.761Z,98023.56
2018-07-21T10:21:40.449Z,98024.27
2018-07-21T10:24:14.282Z,98027.95
2018-07-21T10:26:48.100Z,98033.28
2018-07-21T10:31:52.725Z,98033.84
2018-07-21T10:34:21.461Z,98028.80
2018-07-21T10:36:50.181Z,98033.56
2018-07-21T10:39:18.785Z,98036.59
2018-07-21T10:41:47.699Z,98033.45
2018-07-21T10:44:16.450Z,98042.20
2018-07-21T10:46:45.165Z,98033.63
2018-07-21T10:49:13.760Z,98034.91
2018-07-21T10:51:42.387Z,98036.56
2018-07-21T10:54:11.086Z,98031.78
2018-07-21T10:56:39.822Z,98032.66
2018-07-21T10:59:08.551Z,98031.97
2018-07-21T11:01:37.209Z,98033.50
2018-07-21T11:04:05.888Z,98027.13
2018-07-21T11:06:34.526Z,98032.03
2018-07-21T11:09:03.340Z,98031.54
2018-07-21T11:11:32.078Z,98034.18
2018-07-21T11:14:00.877Z,98033.89
2018-07-21T11:16:29.601Z,98029.69
2018-07-21T11:18:58.302Z,98029.86
2018-07-21T11:21:26.976Z,98028.57
2018-07-21T11:23:55.672Z,98036.86
2018-07-21T11:26:24.311Z,98029.68
2018-07-21T11:28:53.022Z,98035.45
2018-07-21T11:31:21.748Z,98030.39
2018-07-21T11:33:51.249Z,98030.89
2018-07-21T11:36:19.864Z,98032.72
2018-07-21T11:38:48.622Z,98031.48
2018-07-21T11:41:17.462Z,98029.80
2018-07-21T11:43:46.249Z,98033.80
2018-07-21T11:46:15.000Z,98031.39
2018-07-21T11:48:43.711Z,98032.22
2018-07-21T11:51:12.402Z,98032.67
2018-07-21T11:53:41.048Z,98033.16
2018-07-21T11:56:09.843Z,98025.75
2018-07-21T11:58:38.515Z,98029.66
2018-07-21T12:01:08.038Z,98027.69
2018-07-21T12:03:36.771Z,98020.16
2018-07-21T12:06:05.503Z,98021.82
2018-07-21T12:08:34.251Z,98017.89
2018-07-21T12:11:02.932Z,98015.09
2018-07-21T12:13:31.661Z,98017.63
2018-07-21T12:16:00.255Z,98014.22
2018-07-21T12:18:28.911Z,98016.41
2018-07-21T12:20:57.695Z,98015.36
2018-07-21T12:23:26.391Z,98009.12
2018-07-21T12:25:55.074Z,98006.26
2018-07-21T12:28:23.770Z,98006.34
2018-07-21T12:30:52.392Z,98002.45
2018-07-21T12:33:21.024Z,98001.27
2018-07-21T12:35:49.659Z,98002.86
2018-07-21T12:38:18.275Z,98000.94
2018-07-21T12:40:46.985Z,98006.02
2018-07-21T12:43:15.679Z,98002.95
2018-07-21T12:45:44.414Z,98007.70
2018-07-21T12:48:13.178Z,98005.75
2018-07-21T12:50:41.905Z,98007.32
2018-07-21T12:53:10.587Z,97998.77
2018-07-21T12:55:39.221Z,98006.23
2018-07-21T12:58:08.029Z,97999.74
2018-07-21T13:00:36.697Z,98007.09
2018-07-21T13:03:05.575Z,98001.31
2018-07-21T13:05:34.361Z,98000.72
2018-07-21T13:08:03.057Z,97997.03
2018-07-21T13:10:31.903Z,97991.68
2018-07-21T13:13:00.726Z,97990.98
2018-07-21T13:15:29.666Z,97986.14
2018-07-21T13:17:58.485Z,97973.27
2018-07-21T13:20:27.262Z,97980.67
2018-07-21T13:22:55.973Z,97970.77
2018-07-21T13:25:25.089Z,97967.61
2018-07-21T13:27:54.053Z,97975.39
2018-07-21T13:30:22.892Z,97966.41
2018-07-21T13:32:51.547Z,97969.07
2018-07-21T13:35:20.401Z,97963.31
2018-07-21T13:37:53.551Z,97967.11
2018-07-21T13:40:24.254Z,97969.23
2018-07-21T13:43:01.115Z,97974.39
2018-07-21T13:45:29.946Z,97980.44
2018-07-21T13:47:58.714Z,97982.47
2018-07-21T13:50:27.357Z,97985.31
2018-07-21T13:52:55.958Z,97983.36
2018-07-21T13:55:24.720Z,97980.23
2018-07-21T13:57:53.381Z,97983.09
2018-07-21T14:00:22.058Z,97979.88
2018-07-21T14:02:50.825Z,97973.66
2018-07-21T14:05:19.618Z,97973.39
2018-07-21T14:07:48.312Z,97970.22
2018-07-21T14:10:17.052Z,97968.56
2018-07-21T14:12:45.653Z,97967.15
2018-07-21T14:15:14.292Z,97961.28
2018-07-21T14:17:42.947Z,97963.78
2018-07-21T14:20:11.537Z,97959.40
2018-07-21T14:22:40.397Z,97958.70
2018-07-21T14:25:09.055Z,97948.63
2018-07-21T14:27:38.822Z,97945.63
2018-07-21T14:30:08.727Z,97941.67
2018-07-21T14:32:37.695Z,97947.34
2018-07-21T14:35:06.879Z,97941.95
2018-07-21T14:37:35.476Z,97947.66
2018-07-21T14:40:04.235Z,97952.58
2018-07-21T14:42:33.074Z,97953.91
2018-07-21T14:45:02.911Z,97957.45
2018-07-21T14:47:31.526Z,97948.92
2018-07-21T14:50:00.372Z,97948.69
2018-07-21T14:52:28.957Z,97953.33
2018-07-21T14:54:57.875Z,97962.84
2018-07-21T14:57:26.502Z,97964.97
2018-07-21T14:59:55.246Z,97971.07
2018-07-21T15:02:23.889Z,97968.89
2018-07-21T15:04:52.575Z,97962.66
2018-07-21T15:07:21.392Z,97970.42
2018-07-21T15:09:50.056Z,97967.27
2018-07-21T15:12:18.666Z,97966.34
2018-07-21T15:14:47.394Z,97962.52
2018-07-21T15:17:16.205Z,97965.37
2018-07-21T15:19:45.034Z,97961.66
2018-07-21T15:22:13.689Z,97966.89
2018-07-21T15:24:42.479Z,97960.54
2018-07-21T15:27:11.231Z,97966.78
2018-07-21T15:29:40.050Z,97968.00
2018-07-21T15:32:08.943Z,97967.86
2018-07-21T15:34:37.837Z,97964.02
2018-07-21T15:37:07.009Z,97972.48
2018-07-21T15:39:35.620Z,97975.73
2018-07-21T15:42:04.416Z,97967.06
2018-07-21T15:44:33.196Z,97962.14
2018-07-21T15:47:01.918Z,97963.14
2018-07-21T15:49:30.561Z,97963.94
2018-07-21T15:51:59.253Z,97968.25
2018-07-21T15:54:27.871Z,97962.89
2018-07-21T15:56:56.521Z,97966.00
2018-07-21T15:59:25.133Z,97958.23
2018-07-21T16:01:53.709Z,97961.42
2018-07-21T16:04:22.414Z,97951.31
2018-07-21T16:06:51.110Z,97950.64
2018-07-21T16:09:19.738Z,97947.48
2018-07-21T16:11:48.441Z,97946.99
2018-07-21T16:14:17.135Z,97949.55
2018-07-21T16:16:45.923Z,97946.48
2018-07-21T16:19:14.728Z,97947.21
2018-07-21T16:21:43.631Z,97949.80
2018-07-21T16:24:12.477Z,97946.42
2018-07-21T16:26:41.425Z,97945.08
2018-07-21T16:29:10.187Z,97945.55
2018-07-21T16:31:38.890Z,97946.84
2018-07-21T16:34:07.569Z,97947.30
2018-07-21T16:36:36.235Z,97949.88
2018-07-21T16:39:08.266Z,97951.58
2018-07-21T16:41:36.891Z,97955.09
2018-07-21T16:44:05.650Z,97954.38
2018-07-21T16:46:34.455Z,97955.12
2018-07-21T16:49:03.294Z,97959.61
2018-07-21T16:51:32.106Z,97955.27
2018-07-21T16:54:00.842Z,97952.27
2018-07-21T16:56:29.665Z,97948.41
2018-07-21T16:58:58.365Z,97959.66
2018-07-21T17:01:27.087Z,97962.16
2018-07-21T17:03:55.694Z,97956.88
2018-07-21T17:06:25.591Z,97956.70
2018-07-21T17:08:54.651Z,97959.62
2018-07-21T17:11:23.441Z,97949.34
2018-07-21T17:13:52.298Z,97949.28
2018-07-21T17:16:21.755Z,97955.77
2018-07-21T17:18:50.611Z,97955.77
2018-07-21T17:21:19.374Z,97959.97
2018-07-21T17:23:48.428Z,97960.95
2018-07-21T17:26:18.222Z,97967.91
2018-07-21T17:28:46.980Z,97961.26
2018-07-21T17:31:15.927Z,97960.23
2018-07-21T17:33:44.770Z,97967.38
2018-07-21T17:39:08.454Z,97975.87
2018-07-21T17:41:37.604Z,97980.31
2018-07-21T17:44:06.266Z,97991.67
2018-07-21T17:46:35.502Z,97980.59
2018-07-21T17:49:04.348Z,97986.17
2018-07-21T17:51:52.088Z,97984.36
2018-07-21T17:54:21.026Z,97984.66
2018-07-21T17:56:50.663Z,97981.00
2018-07-21T17:59:20.740Z,97987.77
2018-07-21T18:01:50.192Z,97982.91
2018-07-21T18:04:21.164Z,97981.54
2018-07-21T18:06:49.850Z,97982.36
2018-07-21T18:09:19.436Z,97983.16
2018-07-21T18:11:48.419Z,97981.36
2018-07-21T18:14:17.151Z,97977.09
2018-07-21T18:16:45.885Z,97982.17
2018-07-21T18:19:14.545Z,97976.50
2018-07-21T18:21:43.159Z,97980.27
2018-07-21T18:24:11.805Z,97981.40
2018-07-21T18:26:40.463Z,97987.11
2018-07-21T18:29:09.203Z,97986.82
2018-07-21T18:31:38.050Z,97987.14
2018-07-21T18:34:12.903Z,97986.27
2018-07-21T18:36:45.934Z,97977.16
2018-07-21T18:39:39.813Z,97982.32
2018-07-21T18:42:08.502Z,97984.20
2018-07-21T18:44:37.144Z,97978.95
2018-07-21T18:47:05.827Z,97977.86
2018-07-21T18:49:36.498Z,97979.88
2018-07-21T18:52:12.064Z,97981.76
2018-07-21T18:54:41.668Z,97985.25
2018-07-21T18:57:10.819Z,97982.34
2018-07-21T18:59:39.450Z,97982.44
2018-07-21T19:02:08.046Z,97983.82
2018-07-21T19:04:38.713Z,97984.96
2018-07-21T19:08:00.176Z,97982.42
2018-07-21T19:13:33.052Z,97987.55
2018-07-21T19:16:16.804Z,97991.83
2018-07-21T19:18:45.191Z,97994.94
2018-07-21T19:21:20.840Z,97994.05
2018-07-21T19:23:50.146Z,98002.80
2018-07-21T19:26:28.098Z,97999.55
2018-07-21T19:28:57.128Z,98004.17
2018-07-21T19:31:25.431Z,98016.41
2018-07-21T19:33:53.719Z,98013.97
2018-07-21T19:36:22.163Z,98014.83
2018-07-21T19:38:51.096Z,98009.56
2018-07-21T19:41:24.880Z,98019.80
2018-07-21T19:43:56.525Z,98019.36
2018-07-21T19:46:24.919Z,98023.42
2018-07-21T19:48:53.381Z,98027.87
2018-07-21T19:51:21.706Z,98026.95
2018-07-21T19:53:50.004Z,98025.25
2018-07-21T19:56:18.360Z,98020.88
2018-07-21T19:58:47.723Z,98024.52
2018-07-21T20:01:16.184Z,98031.47
2018-07-21T20:03:44.521Z,98029.36
2018-07-21T20:06:12.884Z,98032.04
2018-07-21T20:08:41.391Z,98030.90
2018-07-21T20:11:11.187Z,98033.69
2018-07-21T20:13:41.955Z,98034.84
2018-07-21T20:16:10.257Z,98036.81
2018-07-21T20:18:38.612Z,98043.14
2018-07-21T20:21:07.273Z,98043.67
2018-07-21T20:23:35.998Z,98040.06
2018-07-21T20:26:04.385Z,98044.56
2018-07-21T20:28:32.702Z,98042.54
2018-07-21T20:31:00.964Z,98042.77
2018-07-21T20:33:29.490Z,98043.84
2018-07-21T20:36:02.941Z,98045.70
2018-07-21T20:38:31.601Z,98047.39
2018-07-21T20:41:00.083Z,98051.75
2018-07-21T20:43:28.500Z,98049.70
2018-07-21T20:45:56.799Z,98052.23
2018-07-21T20:48:25.326Z,98057.92
2018-07-21T20:50:53.759Z,98064.80
2018-07-21T20:53:22.424Z,98063.34
2018-07-21T20:55:51.563Z,98066.42
2018-07-21T20:58:19.954Z,98063.22
2018-07-21T21:00:48.441Z,98062.98
2018-07-21T21:03:18.848Z,98060.98
2018-07-21T21:06:08.672Z,98064.94
2018-07-21T21:08:44.017Z,98057.01
2018-07-21T21:11:14.619Z,98061.11
2018-07-21T21:13:44.260Z,98061.09
2018-07-21T21:16:12.568Z,98065.00
2018-07-21T21:18:40.981Z,98060.70
2018-07-21T21:21:09.429Z,98063.80
2018-07-21T21:23:37.897Z,98062.27
2018-07-21T21:26:07.277Z,98063.55
2018-07-21T21:28:36.549Z,98067.06
2018-07-21T21:31:04.904Z,98063.89
2018-07-21T21:33:33.249Z,98057.28
2018-07-21T21:36:01.678Z,98060.69
2018-07-21T21:38:31.886Z,98062.09
2018-07-21T21:41:01.885Z,98060.70
2018-07-21T21:43:31.951Z,98061.78
2018-07-21T21:46:01.527Z,98064.42
2018-07-21T21:48:30.955Z,98064.57
2018-07-21T21:50:59.905Z,98063.67
2018-07-21T21:53:29.305Z,98063.62
2018-07-21T21:55:58.281Z,98065.36
2018-07-21T21:58:27.776Z,98062.86
2018-07-21T22:01:08.836Z,98067.92
2018-07-21T22:03:37.186Z,98060.38
2018-07-21T22:06:05.997Z,98065.58
2018-07-21T22:08:34.706Z,98063.06
2018-07-21T22:11:04.426Z,98065.67
2018-07-21T22:13:32.795Z,98066.95
2018-07-21T22:16:01.587Z,98067.42
2018-07-21T22:18:31.199Z,98070.97
2018-07-21T22:20:59.456Z,98069.89
2018-07-21T22:23:27.843Z,98071.25
2018-07-21T22:25:56.602Z,98072.13
2018-07-21T22:28:25.180Z,98067.36
2018-07-21T22:30:53.493Z,98068.19
2018-07-21T22:33:23.024Z,98067.42
2018-07-21T22:35:51.412Z,98064.63
2018-07-21T22:38:19.964Z,98059.08
2018-07-21T22:40:48.350Z,98057.52
2018-07-21T22:43:17.057Z,98058.55
2018-07-21T22:45:46.196Z,98058.20
2018-07-21T22:48:15.150Z,98054.62
2018-07-21T22:50:43.834Z,98062.00
2018-07-21T22:53:12.112Z,98063.44
2018-07-21T22:55:40.379Z,98062.75
2018-07-21T22:58:11.245Z,98062.43
2018-07-21T23:00:39.802Z,98062.52
2018-07-21T23:03:09.148Z,98048.24
2018-07-21T23:05:41.153Z,98055.14
2018-07-21T23:08:09.587Z,98051.58
2018-07-21T23:10:38.572Z,98047.56
2018-07-21T23:13:07.811Z,98048.55
2018-07-21T23:15:36.206Z,98048.70
2018-07-21T23:18:04.708Z,98049.56
2018-07-21T23:20:33.056Z,98047.16
2018-07-21T23:23:01.781Z,98046.78
2018-07-21T23:25:30.058Z,98042.19
2018-07-21T23:27:58.376Z,98046.14
2018-07-21T23:30:26.776Z,98039.25
2018-07-21T23:32:55.198Z,98040.31
2018-07-21T23:35:23.917Z,98040.19
2018-07-21T23:37:52.208Z,98044.11
2018-07-21T23:40:20.524Z,98039.77
2018-07-21T23:42:48.940Z,98040.20
2018-07-21T23:45:17.415Z,98036.50
2018-07-21T23:47:45.740Z,98032.46
2018-07-21T23:50:14.108Z,98035.13
2018-07-21T23:52:42.821Z,98033.95
2018-07-21T23:55:11.357Z,98037.84
2018-07-21T23:57:39.680Z,98040.16
